X  Close Metar Aviation Weather Data     NZAA Auckland International Airport
Temperature
17°C Temperature
16°C Dewpoint
94% Humidity



Wind
13 KM/H
8 MPH
4 M/S
7 KTS



240°
WSW
Current Conditions

Mostly Cloudy Mostly Cloudy
Pressure 1024.92 (hPa) - 30.27 (inHg)
Visibility 6.2 (mile) - 10 (km)
Airport
Airport-code NZAA

Location: Auckland International Airport
Distance: 130 (km)

Metar:
NZAA 270900Z AUTO 24007KT 9999 BKN055/// 17/16 Q1025 BECMG VRB02KT

Time: 27-10-2020 22:00 NZDT